Home / US / Colorado / Eagle County Regional

Eagle County Regional, CO Weather

Current Report for Sun Dec 10 2017

As of 7:56 PM MST SUN DEC 10 2017

18°F -8°cEagle County Regional weather conditions : Fair

Fair

Barometer: 30.60 inHg. rising

Humidity: 68%

Wind: SE. 4mph

Wind Gust: 6mph

Wind Chill: 12°F

Dew Point: 9°F steady

Visibility: 10.00mi.

Sunrise: 7:17 AM

Sunset: 4:42 PM

Moon Phase: Waning Crescent Moon

Daily and Hourly Summary

Loading Eagle County Regional CO Summary and Hourly data for today, tonight and tomorrow...
Forecast for Eagle County Regional, CO:
(Forecast based on TAF for )
1124 AM MST SUN DEC 10 2017
  
MORNING AFTERNOON EVENING OVERNIGHT MORNING
Clear Clear Clear Clear Clear
Clear Clear Clear Clear Clear
Original Encoded TAF:
Dated: 1124 AM MST SUN DEC 10 2017
2017/12/10 18:24
TAF KEGE 101723Z 1018/1118 VRB04KT P6SM SKC

Temperatures Today (View More Charts)

Eagle County Regional, CO updates by locals

Write your own report, forecast, or traffic update:

Please note by clicking on "Post" you acknowledge that you have read the Terms of Service and the report and/or forecast you are posting is in compliance with such terms. Be respectful. An inappropriate post will be removed by a moderator. If you are not finding the information you want, please be sure to note the navigation tabs just above the breadcrumbs, which are links to other data relating to this city.